createdAt,value
2023-04-15T00:00:34.178Z,100771.77
2023-04-15T00:03:16.142Z,100774.91
2023-04-15T00:05:45.964Z,100784.90
2023-04-15T00:08:16.756Z,100785.45
2023-04-15T00:10:46.842Z,100787.84
2023-04-15T00:13:17.194Z,100786.80
2023-04-15T00:15:49.266Z,100783.92
2023-04-15T00:18:18.722Z,100778.14
2023-04-15T00:20:48.894Z,100770.16
2023-04-15T00:23:21.817Z,100766.63
2023-04-15T00:25:53.939Z,100763.88
2023-04-15T00:28:24.890Z,100767.45
2023-04-15T00:30:58.385Z,100763.65
2023-04-15T00:36:41.487Z,100761.80
2023-04-15T00:39:11.280Z,100762.35
2023-04-15T00:41:47.781Z,100760.06
2023-04-15T00:44:19.753Z,100746.07
2023-04-15T00:46:52.213Z,100743.77
2023-04-15T00:49:21.708Z,100749.83
2023-04-15T00:51:51.973Z,100753.45
2023-04-15T00:54:21.799Z,100767.18
2023-04-15T00:56:52.670Z,100775.04
2023-04-15T00:59:22.928Z,100767.77
2023-04-15T01:01:53.538Z,100765.64
2023-04-15T01:04:23.138Z,100771.20
2023-04-15T01:06:52.853Z,100781.41
2023-04-15T01:09:22.365Z,100787.80
2023-04-15T01:11:53.969Z,100799.09
2023-04-15T01:14:24.139Z,100796.23
2023-04-15T01:16:53.681Z,100796.10
2023-04-15T01:19:23.031Z,100801.48
2023-04-15T01:21:52.882Z,100800.77
2023-04-15T01:24:24.619Z,100804.97
2023-04-15T01:26:54.328Z,100808.09
2023-04-15T01:29:24.317Z,100813.02
2023-04-15T01:31:56.969Z,100819.30
2023-04-15T01:34:28.877Z,100811.79
2023-04-15T01:37:00.749Z,100808.30
2023-04-15T01:39:31.823Z,100810.55
2023-04-15T01:42:02.864Z,100822.85
2023-04-15T01:44:32.723Z,100817.41
2023-04-15T01:47:03.260Z,100812.16
2023-04-15T01:49:34.013Z,100806.80
2023-04-15T01:52:04.319Z,100811.59
2023-04-15T01:54:33.686Z,100819.37
2023-04-15T01:57:03.855Z,100814.71
2023-04-15T01:59:33.986Z,100810.34
2023-04-15T02:02:03.735Z,100802.34
2023-04-15T02:04:35.071Z,100792.86
2023-04-15T02:07:07.286Z,100776.11
2023-04-15T02:09:38.846Z,100760.90
2023-04-15T02:12:10.368Z,100761.27
2023-04-15T02:14:40.872Z,100773.06
2023-04-15T02:17:12.548Z,100780.60
2023-04-15T02:19:44.332Z,100784.02
2023-04-15T02:22:19.098Z,100780.13
2023-04-15T02:24:49.582Z,100778.60
2023-04-15T02:27:22.865Z,100781.36
2023-04-15T02:29:52.922Z,100771.92
2023-04-15T02:32:24.683Z,100759.56
2023-04-15T02:35:07.024Z,100750.33
2023-04-15T02:37:43.826Z,100742.33
2023-04-15T02:40:15.031Z,100734.04
2023-04-15T02:42:44.903Z,100727.59
2023-04-15T02:45:16.307Z,100721.52
2023-04-15T02:47:47.554Z,100719.75
2023-04-15T02:50:17.904Z,100719.33
2023-04-15T02:52:47.898Z,100721.02
2023-04-15T02:55:18.283Z,100726.54
2023-04-15T02:57:48.603Z,100728.39
2023-04-15T03:00:19.406Z,100731.75
2023-04-15T03:02:52.507Z,100735.75
2023-04-15T03:05:25.927Z,100736.20
2023-04-15T03:07:55.641Z,100743.25
2023-04-15T03:10:25.640Z,100746.29
2023-04-15T03:12:54.965Z,100758.34
2023-04-15T03:15:24.365Z,100761.29
2023-04-15T03:17:54.988Z,100755.42
2023-04-15T03:20:24.953Z,100744.59
2023-04-15T03:23:01.416Z,100732.83
2023-04-15T03:25:32.336Z,100733.61
2023-04-15T03:28:02.545Z,100732.11
2023-04-15T03:30:32.002Z,100742.04
2023-04-15T03:33:01.595Z,100749.21
2023-04-15T03:35:31.555Z,100749.83
2023-04-15T03:38:01.370Z,100755.90
2023-04-15T03:40:30.733Z,100757.23
2023-04-15T03:43:00.787Z,100761.45
2023-04-15T03:45:33.296Z,100758.61
2023-04-15T03:48:16.105Z,100758.83
2023-04-15T03:50:48.532Z,100762.89
2023-04-15T03:53:18.025Z,100762.67
2023-04-15T03:55:49.155Z,100767.13
2023-04-15T03:58:21.632Z,100764.13
2023-04-15T04:00:54.952Z,100765.16
2023-04-15T04:03:26.559Z,100771.48
2023-04-15T04:05:56.382Z,100781.73
2023-04-15T04:08:25.811Z,100781.14
2023-04-15T04:10:55.155Z,100780.29
2023-04-15T04:13:24.588Z,100779.16
2023-04-15T04:15:54.686Z,100774.14
2023-04-15T04:18:24.071Z,100780.38
2023-04-15T04:20:53.506Z,100777.25
2023-04-15T04:23:23.054Z,100781.52
2023-04-15T04:25:53.421Z,100780.76
2023-04-15T04:28:23.213Z,100781.36
2023-04-15T04:30:52.632Z,100779.67
2023-04-15T04:33:22.276Z,100779.73
2023-04-15T04:35:51.710Z,100787.64
2023-04-15T04:38:21.171Z,100808.14
2023-04-15T04:40:50.610Z,100817.56
2023-04-15T04:43:22.722Z,100820.90
2023-04-15T04:45:52.304Z,100825.34
2023-04-15T04:48:21.695Z,100828.15
2023-04-15T04:50:52.352Z,100828.80
2023-04-15T04:53:21.772Z,100822.33
2023-04-15T04:55:51.259Z,100817.20
2023-04-15T04:58:20.788Z,100819.86
2023-04-15T05:00:50.275Z,100822.66
2023-04-15T05:03:20.014Z,100827.48
2023-04-15T05:05:49.634Z,100833.38
2023-04-15T05:08:19.025Z,100835.48
2023-04-15T05:10:48.821Z,100828.84
2023-04-15T05:13:18.120Z,100834.73
2023-04-15T05:15:47.526Z,100831.84
2023-04-15T05:18:16.946Z,100831.59
2023-04-15T05:20:50.287Z,100826.45
2023-04-15T05:23:19.700Z,100827.84
2023-04-15T05:25:49.150Z,100826.98
2023-04-15T05:28:18.430Z,100824.34
2023-04-15T05:30:47.743Z,100825.18
2023-04-15T05:33:17.682Z,100823.73
2023-04-15T05:35:47.059Z,100828.54
2023-04-15T05:38:16.509Z,100832.73
2023-04-15T05:40:46.476Z,100843.80
2023-04-15T05:43:15.829Z,100845.33
2023-04-15T05:45:45.192Z,100852.35
2023-04-15T05:48:16.020Z,100848.88
2023-04-15T05:50:45.680Z,100849.03
2023-04-15T05:53:15.329Z,100857.56
2023-04-15T05:55:44.709Z,100860.43
2023-04-15T05:58:14.173Z,100861.33
2023-04-15T06:00:44.969Z,100858.71
2023-04-15T06:03:16.570Z,100861.54
2023-04-15T06:05:45.977Z,100867.42
2023-04-15T06:08:15.439Z,100879.02
2023-04-15T06:10:46.303Z,100886.06
2023-04-15T06:13:17.757Z,100892.73
2023-04-15T06:15:47.660Z,100893.50
2023-04-15T06:18:16.943Z,100903.69
2023-04-15T06:20:48.680Z,100900.69
2023-04-15T06:23:18.372Z,100900.05
2023-04-15T06:25:48.123Z,100907.67
2023-04-15T06:28:17.670Z,100904.17
2023-04-15T06:30:47.026Z,100902.49
2023-04-15T06:33:16.758Z,100895.11
2023-04-15T06:35:46.361Z,100894.46
2023-04-15T06:38:16.011Z,100887.05
2023-04-15T06:40:46.724Z,100878.71
2023-04-15T06:43:18.607Z,100871.88
2023-04-15T06:45:48.048Z,100862.22
2023-04-15T06:48:18.238Z,100857.59
2023-04-15T06:50:47.947Z,100849.89
2023-04-15T06:53:17.494Z,100848.40
2023-04-15T06:55:47.418Z,100852.41
2023-04-15T06:58:17.495Z,100853.47
2023-04-15T07:00:48.144Z,100857.30
2023-04-15T07:03:18.100Z,100868.50
2023-04-15T07:05:47.562Z,100890.64
2023-04-15T07:08:17.301Z,100907.55
2023-04-15T07:10:47.715Z,100909.15
2023-04-15T07:13:17.624Z,100897.58
2023-04-15T07:15:47.035Z,100881.63
2023-04-15T07:18:16.495Z,100888.02
2023-04-15T07:20:45.897Z,100894.65
2023-04-15T07:23:15.438Z,100897.31
2023-04-15T07:25:44.873Z,100898.36
2023-04-15T07:28:14.230Z,100904.60
2023-04-15T07:30:43.584Z,100909.36
2023-04-15T07:33:13.214Z,100909.98
2023-04-15T07:35:42.667Z,100910.73
2023-04-15T07:38:15.034Z,100909.31
2023-04-15T07:40:46.101Z,100910.08
2023-04-15T07:43:18.162Z,100911.16
2023-04-15T07:45:49.218Z,100913.45
2023-04-15T07:48:23.670Z,100904.74
2023-04-15T07:50:54.314Z,100898.09
2023-04-15T07:53:25.308Z,100911.65
2023-04-15T07:55:54.644Z,100926.63
2023-04-15T07:58:25.330Z,100932.64
2023-04-15T08:00:57.286Z,100940.48
2023-04-15T08:03:27.145Z,100941.20
2023-04-15T08:05:56.826Z,100943.27
2023-04-15T08:08:27.687Z,100937.83
2023-04-15T08:10:59.001Z,100939.40
2023-04-15T08:13:28.404Z,100938.98
2023-04-15T08:16:19.998Z,100938.39
2023-04-15T08:18:51.118Z,100938.77
2023-04-15T08:21:21.032Z,100938.64
2023-04-15T08:23:53.866Z,100944.50
2023-04-15T08:26:25.575Z,100941.88
2023-04-15T08:29:30.469Z,100935.85
2023-04-15T08:32:06.633Z,100928.41
2023-04-15T08:34:46.888Z,100927.02
2023-04-15T08:37:18.768Z,100931.80
2023-04-15T08:39:49.688Z,100941.21
2023-04-15T08:42:32.112Z,100934.55
2023-04-15T08:45:16.078Z,100938.36
2023-04-15T08:47:58.208Z,100945.86
2023-04-15T08:50:34.162Z,100958.65
2023-04-15T08:53:06.933Z,100958.88
2023-04-15T08:55:40.210Z,100951.95
2023-04-15T08:58:11.631Z,100950.97
2023-04-15T09:00:47.356Z,100950.91
2023-04-15T09:03:22.073Z,100953.19
2023-04-15T09:05:53.256Z,100957.90
2023-04-15T09:08:22.943Z,100962.10
2023-04-15T09:10:52.750Z,100959.41
2023-04-15T09:13:22.408Z,100961.35
2023-04-15T09:15:53.959Z,100957.27
2023-04-15T09:18:30.230Z,100953.55
2023-04-15T09:21:19.404Z,100959.96
2023-04-15T09:24:02.249Z,100959.06
2023-04-15T09:26:40.495Z,100958.16
2023-04-15T09:29:15.614Z,100953.98
2023-04-15T09:31:45.118Z,100962.39
2023-04-15T09:34:16.979Z,100961.52
2023-04-15T09:36:49.213Z,100957.30
2023-04-15T09:39:21.479Z,100961.02
2023-04-15T09:42:11.567Z,100964.45
2023-04-15T09:44:40.990Z,100974.59
2023-04-15T09:47:33.260Z,100967.40
2023-04-15T09:50:03.754Z,100971.57
2023-04-15T09:52:33.746Z,100966.63
2023-04-15T09:55:03.148Z,100963.73
2023-04-15T09:57:39.709Z,100968.84
2023-04-15T10:00:12.669Z,100960.62
2023-04-15T10:02:49.993Z,100964.64
2023-04-15T10:05:24.350Z,100959.95
2023-04-15T10:07:54.595Z,100958.25
2023-04-15T10:10:26.158Z,100956.61
2023-04-15T10:12:58.461Z,100956.98
2023-04-15T10:15:35.177Z,100947.74
2023-04-15T10:18:10.356Z,100942.43
2023-04-15T10:20:43.467Z,100932.27
2023-04-15T10:23:14.370Z,100935.45
2023-04-15T10:25:46.889Z,100934.93
2023-04-15T10:28:18.339Z,100933.90
2023-04-15T10:30:50.305Z,100932.52
2023-04-15T10:33:25.370Z,100935.33
2023-04-15T10:36:27.831Z,100935.77
2023-04-15T10:39:02.394Z,100939.23
2023-04-15T10:41:35.541Z,100937.29
2023-04-15T10:44:06.004Z,100939.90
2023-04-15T10:46:52.906Z,100938.98
2023-04-15T10:49:27.103Z,100937.43
2023-04-15T10:52:04.708Z,100934.60
2023-04-15T10:54:36.560Z,100933.40
2023-04-15T10:57:17.507Z,100937.29
2023-04-15T11:00:03.533Z,100940.83
2023-04-15T11:02:45.735Z,100936.68
2023-04-15T11:05:20.099Z,100934.24
2023-04-15T11:07:57.777Z,100929.86
2023-04-15T11:10:34.089Z,100925.55
2023-04-15T11:13:11.974Z,100921.17
2023-04-15T11:15:47.782Z,100923.60
2023-04-15T11:18:23.318Z,100924.09
2023-04-15T11:21:01.379Z,100928.75
2023-04-15T11:23:48.821Z,100928.47
2023-04-15T11:26:18.904Z,100934.25
2023-04-15T11:28:53.281Z,100932.86
2023-04-15T11:31:34.036Z,100932.79
2023-04-15T11:34:08.457Z,100931.27
2023-04-15T11:36:43.973Z,100924.27
2023-04-15T11:39:15.475Z,100927.23
2023-04-15T11:41:46.232Z,100930.35
2023-04-15T11:44:19.405Z,100930.38
2023-04-15T11:46:50.027Z,100925.94
2023-04-15T11:49:35.461Z,100924.23
2023-04-15T11:52:11.748Z,100923.48
2023-04-15T11:54:41.593Z,100924.69
2023-04-15T11:57:11.847Z,100924.96
2023-04-15T11:59:46.190Z,100923.75
2023-04-15T12:02:16.894Z,100924.02
2023-04-15T12:04:49.673Z,100920.60
2023-04-15T12:07:22.161Z,100920.45
2023-04-15T12:09:59.010Z,100922.15
2023-04-15T12:12:29.779Z,100920.79
2023-04-15T12:14:59.629Z,100924.39
2023-04-15T12:17:29.106Z,100924.36
2023-04-15T12:19:58.651Z,100924.14
2023-04-15T12:22:41.010Z,100926.60
2023-04-15T12:25:16.430Z,100924.24
2023-04-15T12:27:54.015Z,100926.98
2023-04-15T12:30:25.507Z,100926.46
2023-04-15T12:32:57.401Z,100929.51
2023-04-15T12:35:31.305Z,100926.31
2023-04-15T12:38:00.995Z,100928.25
2023-04-15T12:40:30.491Z,100923.98
2023-04-15T12:42:59.928Z,100925.29
2023-04-15T12:45:31.422Z,100930.65
2023-04-15T12:48:01.328Z,100928.27
2023-04-15T12:50:32.298Z,100923.17
2023-04-15T12:53:06.364Z,100922.11
2023-04-15T12:55:35.892Z,100929.90
2023-04-15T12:58:05.944Z,100924.21
2023-04-15T13:00:39.255Z,100923.47
2023-04-15T13:03:09.980Z,100934.02
2023-04-15T13:05:40.139Z,100936.44
2023-04-15T13:08:09.709Z,100936.41
2023-04-15T13:10:39.277Z,100933.66
2023-04-15T13:13:08.872Z,100931.85
2023-04-15T13:15:42.794Z,100926.27
2023-04-15T13:18:12.344Z,100921.30
2023-04-15T13:20:44.069Z,100927.23
2023-04-15T13:23:13.767Z,100927.14
2023-04-15T13:25:43.805Z,100930.91
2023-04-15T13:28:16.409Z,100929.97
2023-04-15T13:30:52.051Z,100934.36
2023-04-15T13:33:26.910Z,100934.94
2023-04-15T13:36:44.579Z,100929.23
2023-04-15T13:39:20.897Z,100933.52
2023-04-15T13:41:52.153Z,100931.75
2023-04-15T13:44:22.847Z,100931.27
2023-04-15T13:47:05.022Z,100928.77
2023-04-15T13:49:34.658Z,100927.23
2023-04-15T13:52:05.640Z,100931.67
2023-04-15T13:54:37.391Z,100929.25
2023-04-15T13:57:07.625Z,100926.52
2023-04-15T13:59:37.082Z,100925.91
2023-04-15T14:02:07.387Z,100923.83
2023-04-15T14:04:39.386Z,100925.28
2023-04-15T14:07:08.921Z,100925.45
2023-04-15T14:09:45.102Z,100927.61
2023-04-15T14:12:19.120Z,100930.27
2023-04-15T14:14:49.595Z,100929.36
2023-04-15T14:17:19.362Z,100932.56
2023-04-15T14:19:50.735Z,100932.17
2023-04-15T14:22:22.838Z,100932.52
2023-04-15T14:24:53.841Z,100932.63
2023-04-15T14:27:23.447Z,100933.84
2023-04-15T14:29:58.405Z,100936.41
2023-04-15T14:32:28.126Z,100938.55
2023-04-15T14:35:02.761Z,100941.16
2023-04-15T14:37:57.663Z,100940.73
2023-04-15T14:40:27.303Z,100940.27
2023-04-15T14:42:56.890Z,100944.41
2023-04-15T14:45:26.347Z,100940.27
2023-04-15T14:47:56.199Z,100942.14
2023-04-15T14:50:25.659Z,100948.78
2023-04-15T14:52:55.135Z,100945.74
2023-04-15T14:55:24.703Z,100946.93
2023-04-15T14:57:54.959Z,100949.62
2023-04-15T15:00:24.569Z,100945.70
2023-04-15T15:02:54.103Z,100948.98
2023-04-15T15:05:23.755Z,100947.89
2023-04-15T15:08:01.429Z,100945.15
2023-04-15T15:10:48.715Z,100944.05
2023-04-15T15:13:24.217Z,100950.75
2023-04-15T15:16:02.534Z,100953.27
2023-04-15T15:18:40.794Z,100955.53
2023-04-15T15:21:13.725Z,100952.45
2023-04-15T15:27:05.346Z,100958.14
2023-04-15T15:29:38.610Z,100958.03
2023-04-15T15:32:09.178Z,100960.34
2023-04-15T15:34:41.060Z,100963.95
2023-04-15T15:37:11.883Z,100967.61
2023-04-15T15:39:41.483Z,100968.31
2023-04-15T15:42:11.725Z,100968.81
2023-04-15T15:44:41.312Z,100970.88
2023-04-15T15:47:10.740Z,100971.89
2023-04-15T15:49:40.578Z,100970.14
2023-04-15T15:52:10.666Z,100968.05
2023-04-15T15:54:41.932Z,100969.77
2023-04-15T15:57:11.615Z,100971.56
2023-04-15T15:59:44.094Z,100972.77
2023-04-15T16:02:14.611Z,100975.17
2023-04-15T16:04:44.261Z,100978.23
2023-04-15T16:07:15.718Z,100982.01
2023-04-15T16:09:45.527Z,100982.17
2023-04-15T16:12:14.997Z,100987.54
2023-04-15T16:14:44.517Z,100988.98
2023-04-15T16:17:14.248Z,100990.44
2023-04-15T16:19:57.897Z,100994.04
2023-04-15T16:22:38.650Z,100995.42
2023-04-15T16:25:33.887Z,100994.91
2023-04-15T16:28:22.687Z,100994.55
2023-04-15T16:30:58.609Z,100993.61
2023-04-15T16:33:29.538Z,100997.14
2023-04-15T16:36:02.507Z,100994.05
2023-04-15T16:38:33.868Z,100996.75
2023-04-15T16:41:04.786Z,100999.14
2023-04-15T16:43:34.355Z,101000.36
2023-04-15T16:46:04.241Z,101000.91
2023-04-15T16:48:33.820Z,101004.64
2023-04-15T16:51:03.401Z,101005.39
2023-04-15T16:53:32.918Z,101007.13
2023-04-15T16:56:03.480Z,101014.36
2023-04-15T16:58:37.971Z,101019.17
2023-04-15T17:01:08.763Z,101020.34
2023-04-15T17:03:39.033Z,101023.31
2023-04-15T17:06:09.799Z,101029.10
2023-04-15T17:08:44.046Z,101029.89
2023-04-15T17:11:18.086Z,101031.44
2023-04-15T17:13:49.286Z,101034.84
2023-04-15T17:16:21.833Z,101037.29
2023-04-15T17:18:54.090Z,101038.98
2023-04-15T17:21:25.855Z,101042.77
2023-04-15T17:23:55.965Z,101045.92
2023-04-15T17:26:25.635Z,101051.29
2023-04-15T17:28:55.223Z,101051.19
2023-04-15T17:31:26.242Z,101049.02
2023-04-15T17:34:07.213Z,101051.03
2023-04-15T17:36:38.987Z,101047.08
2023-04-15T17:39:08.884Z,101043.02
2023-04-15T17:41:38.506Z,101052.32
2023-04-15T17:44:08.964Z,101054.58
2023-04-15T17:46:40.277Z,101058.48
2023-04-15T17:49:09.863Z,101058.80
2023-04-15T17:51:39.651Z,101063.85
2023-04-15T17:54:12.279Z,101061.95
2023-04-15T17:56:41.964Z,101059.80
2023-04-15T17:59:12.147Z,101065.02
2023-04-15T18:01:42.864Z,101061.89
2023-04-15T18:04:12.929Z,101063.60
2023-04-15T18:06:42.744Z,101065.29
2023-04-15T18:09:12.862Z,101069.75
2023-04-15T18:11:45.993Z,101073.45
2023-04-15T18:14:26.696Z,101076.46
2023-04-15T18:17:03.830Z,101076.94
2023-04-15T18:19:33.334Z,101076.26
2023-04-15T18:22:04.297Z,101076.27
2023-04-15T18:24:34.066Z,101077.07
2023-04-15T18:27:03.892Z,101076.16
2023-04-15T18:29:35.499Z,101079.33
2023-04-15T18:32:07.426Z,101080.69
2023-04-15T18:34:37.324Z,101087.55
2023-04-15T18:37:07.100Z,101092.47
2023-04-15T18:39:36.793Z,101098.09
2023-04-15T18:42:06.358Z,101095.23
2023-04-15T18:44:37.351Z,101101.02
2023-04-15T18:47:07.496Z,101097.42
2023-04-15T18:49:36.986Z,101098.41
2023-04-15T18:52:06.872Z,101101.80
2023-04-15T18:54:37.824Z,101103.45
2023-04-15T18:57:07.432Z,101104.84
2023-04-15T18:59:37.446Z,101104.64
2023-04-15T19:02:08.195Z,101101.13
2023-04-15T19:04:39.939Z,101101.38
2023-04-15T19:07:10.124Z,101098.33
2023-04-15T19:09:41.273Z,101098.45
2023-04-15T19:12:11.339Z,101099.96
2023-04-15T19:14:41.695Z,101103.18
2023-04-15T19:17:12.803Z,101104.09
2023-04-15T19:19:42.678Z,101100.40
2023-04-15T19:22:12.571Z,101098.07
2023-04-15T19:24:42.155Z,101104.06
2023-04-15T19:27:11.765Z,101109.80
2023-04-15T19:29:41.449Z,101112.63
2023-04-15T19:32:11.022Z,101117.55
2023-04-15T19:34:42.358Z,101109.60
2023-04-15T19:37:13.019Z,101109.80
2023-04-15T19:39:44.360Z,101111.22
2023-04-15T19:42:15.221Z,101110.45
2023-04-15T19:44:44.654Z,101108.95
2023-04-15T19:47:14.457Z,101107.90
2023-04-15T19:49:44.118Z,101109.69
2023-04-15T19:52:13.921Z,101109.56
2023-04-15T19:54:43.529Z,101113.21
2023-04-15T19:57:13.069Z,101113.61
2023-04-15T19:59:42.552Z,101114.02
2023-04-15T20:02:13.137Z,101115.09
2023-04-15T20:04:43.177Z,101115.90
2023-04-15T20:07:12.792Z,101114.39
2023-04-15T20:09:44.379Z,101111.52
2023-04-15T20:12:50.029Z,101118.61
2023-04-15T20:15:03.667Z,101111.14
2023-04-15T20:17:34.333Z,101107.95
2023-04-15T20:20:07.974Z,101109.45
2023-04-15T20:22:37.907Z,101111.23
2023-04-15T20:25:10.066Z,101111.48
2023-04-15T20:27:39.929Z,101112.66
2023-04-15T20:30:10.198Z,101115.52
2023-04-15T20:32:39.809Z,101114.65
2023-04-15T20:35:09.735Z,101121.34
2023-04-15T20:37:40.537Z,101125.02
2023-04-15T20:40:11.550Z,101123.16
2023-04-15T20:42:44.137Z,101122.55
2023-04-15T20:45:15.772Z,101122.77
2023-04-15T20:47:45.439Z,101123.05
2023-04-15T20:50:14.965Z,101122.02
2023-04-15T20:52:44.406Z,101121.16
2023-04-15T20:55:13.952Z,101122.52
2023-04-15T20:57:43.464Z,101121.15
2023-04-15T21:00:13.236Z,101125.27
2023-04-15T21:02:42.956Z,101126.58
2023-04-15T21:05:12.904Z,101128.27
2023-04-15T21:07:42.575Z,101133.30
2023-04-15T21:10:12.031Z,101132.64
2023-04-15T21:12:42.609Z,101136.57
2023-04-15T21:15:12.545Z,101131.27
2023-04-15T21:17:44.711Z,101131.49
2023-04-15T21:20:15.801Z,101136.58
2023-04-15T21:22:46.890Z,101137.02
2023-04-15T21:25:16.928Z,101136.75
2023-04-15T21:27:46.740Z,101141.34
2023-04-15T21:30:16.311Z,101138.10
2023-04-15T21:32:46.175Z,101138.96
2023-04-15T21:35:16.920Z,101140.34
2023-04-15T21:37:48.898Z,101139.58
2023-04-15T21:40:19.595Z,101137.92
2023-04-15T21:42:50.420Z,101139.77
2023-04-15T21:45:21.091Z,101139.06
2023-04-15T21:47:56.844Z,101140.63
2023-04-15T21:50:44.111Z,101133.70
2023-04-15T21:53:13.577Z,101132.07
2023-04-15T21:55:43.220Z,101132.35
2023-04-15T21:58:12.870Z,101130.39
2023-04-15T22:00:42.580Z,101131.52
2023-04-15T22:03:13.803Z,101131.58
2023-04-15T22:05:47.450Z,101133.00
2023-04-15T22:08:17.780Z,101133.48
2023-04-15T22:10:47.906Z,101133.05
2023-04-15T22:13:19.047Z,101131.47
2023-04-15T22:15:48.622Z,101132.15
2023-04-15T22:18:22.155Z,101132.95
2023-04-15T22:20:51.716Z,101132.02
2023-04-15T22:23:21.469Z,101129.27
2023-04-15T22:25:54.979Z,101133.10
2023-04-15T22:28:25.659Z,101134.65
2023-04-15T22:30:58.247Z,101131.45
2023-04-15T22:33:28.048Z,101130.48
2023-04-15T22:35:57.931Z,101132.23
2023-04-15T22:38:27.554Z,101137.08
2023-04-15T22:40:58.159Z,101143.23
2023-04-15T22:43:28.005Z,101140.97
2023-04-15T22:45:57.616Z,101139.16
2023-04-15T22:48:27.242Z,101139.45
2023-04-15T22:50:56.896Z,101142.96
2023-04-15T22:53:27.734Z,101142.72
2023-04-15T22:55:57.180Z,101142.94
2023-04-15T22:58:26.642Z,101144.95
2023-04-15T23:00:56.245Z,101144.27
2023-04-15T23:03:25.973Z,101144.39
2023-04-15T23:05:57.995Z,101141.79
2023-04-15T23:08:27.557Z,101139.54
2023-04-15T23:10:57.092Z,101134.70
2023-04-15T23:13:26.708Z,101135.87
2023-04-15T23:15:56.371Z,101134.98
2023-04-15T23:18:26.576Z,101138.63
2023-04-15T23:20:57.692Z,101140.77
2023-04-15T23:23:27.220Z,101137.16
2023-04-15T23:25:56.931Z,101134.54
2023-04-15T23:28:26.917Z,101131.65
2023-04-15T23:31:00.469Z,101133.64
2023-04-15T23:33:33.149Z,101133.04
2023-04-15T23:36:02.839Z,101127.66
2023-04-15T23:38:32.800Z,101122.73
2023-04-15T23:41:02.364Z,101126.55
2023-04-15T23:43:32.103Z,101128.83
2023-04-15T23:46:03.853Z,101136.27
2023-04-15T23:48:35.186Z,101144.76
2023-04-15T23:51:06.083Z,101147.59
2023-04-15T23:53:36.573Z,101146.42
2023-04-15T23:56:06.478Z,101153.12
2023-04-15T23:58:36.192Z,101164.33
